Time;durP1;ratioP1;P1;durP2;ratioP2;P2;SDS_P1;SDS_P2;PMS_P1;PMS_P2;Temp;Humidity;BMP_temperature;BMP_pressure;BME280_temperature;BME280_humidity;BME280_pressure;Samples;Min_cycle;Max_cycle;Signal;HPM_P1;HPM_P2
2022/07/25 00:01:45;;;;;;;17.73;13.98;;;;;;;26.52;48.48;96710.59;4988413;28;20057;-60
2022/07/25 00:04:13;;;;;;;22.63;14.02;;;;;;;26.67;48.25;96702.91;4984834;28;20066;-69
2022/07/25 00:06:41;;;;;;;15.90;14.30;;;;;;;26.61;48.03;96702.78;4967596;28;20058;-69
2022/07/25 00:09:08;;;;;;;15.55;13.48;;;;;;;26.73;48.28;96715.19;5000217;28;20481;-70
2022/07/25 00:11:35;;;;;;;15.82;14.25;;;;;;;26.73;48.25;96708.72;4967422;28;20066;-70
2022/07/25 00:14:02;;;;;;;15.63;13.93;;;;;;;26.76;48.42;96719.91;4967723;28;20047;-70
2022/07/25 00:16:29;;;;;;;15.32;13.80;;;;;;;26.82;48.68;96706.59;4957948;28;20133;-60
2022/07/25 00:18:56;;;;;;;16.08;13.57;;;;;;;26.45;48.42;96656.94;4969167;28;20411;-67
2022/07/25 00:21:23;;;;;;;17.13;15.20;;;;;;;26.88;48.38;96695.31;4968855;28;20433;-68
2022/07/25 00:23:49;;;;;;;16.40;14.55;;;;;;;26.91;48.40;96698.00;4968750;28;20082;-58
2022/07/25 00:26:16;;;;;;;22.60;18.65;;;;;;;26.82;48.52;96683.06;4968913;28;20081;-68
2022/07/25 00:28:43;;;;;;;18.35;15.48;;;;;;;26.90;48.40;96695.63;4968333;28;20533;-68
2022/07/25 00:31:10;;;;;;;17.50;15.80;;;;;;;26.94;48.57;96719.75;4968758;28;20066;-59
2022/07/25 00:33:38;;;;;;;17.02;15.43;;;;;;;26.93;48.39;96703.97;4968740;28;20129;-66
2022/07/25 00:36:08;;;;;;;16.60;14.90;;;;;;;26.61;48.88;96650.84;4968828;28;20290;-58
2022/07/25 00:38:35;;;;;;;17.20;14.98;;;;;;;27.06;49.06;96727.25;4968491;28;20530;-67
2022/07/25 00:41:03;;;;;;;16.23;14.57;;;;;;;26.94;49.66;96702.69;4968988;28;20058;-58
2022/07/25 00:43:30;;;;;;;16.00;14.40;;;;;;;26.86;49.47;96701.50;4968282;28;20062;-68
2022/07/25 00:45:58;;;;;;;15.95;14.43;;;;;;;26.61;49.43;96663.00;4966879;28;20061;-67
2022/07/25 00:48:27;;;;;;;16.80;15.07;;;;;;;26.92;49.82;96713.75;4967176;28;20110;-68
2022/07/25 00:50:57;;;;;;;15.43;13.88;;;;;;;26.58;50.16;96685.91;4968291;28;20505;-68
2022/07/25 00:53:25;;;;;;;16.10;14.50;;;;;;;26.74;50.23;96733.81;4968484;28;20469;-57
2022/07/25 00:55:52;;;;;;;15.40;13.90;;;;;;;26.68;50.83;96738.59;4966905;28;20050;-57
2022/07/25 00:58:18;;;;;;;15.52;13.68;;;;;;;26.73;51.00;96746.44;4968435;28;20054;-68
2022/07/25 01:00:46;;;;;;;16.25;13.98;;;;;;;26.70;50.87;96744.56;4967284;28;20480;-68
2022/07/25 01:03:13;;;;;;;15.68;14.13;;;;;;;26.68;51.06;96747.13;4966882;28;20057;-69
2022/07/25 01:05:40;;;;;;;16.38;14.43;;;;;;;26.63;50.98;96744.91;4978179;28;20132;-68
2022/07/25 01:08:08;;;;;;;16.50;14.88;;;;;;;26.54;51.27;96745.00;4986340;28;20046;-69
2022/07/25 01:10:35;;;;;;;15.65;14.15;;;;;;;26.07;51.39;96690.94;4987382;28;20061;-68
2022/07/25 01:13:03;;;;;;;18.23;14.77;;;;;;;25.91;51.53;96677.16;4985972;28;20560;-69
2022/07/25 01:15:30;;;;;;;16.58;14.77;;;;;;;26.38;51.67;96754.69;4987152;28;20050;-69
2022/07/25 01:17:57;;;;;;;15.93;14.23;;;;;;;26.48;51.67;96756.22;4987206;28;20620;-68
2022/07/25 01:20:27;;;;;;;19.45;15.05;;;;;;;26.44;51.77;96749.16;4987135;28;20062;-69
2022/07/25 01:22:55;;;;;;;16.55;14.90;;;;;;;25.81;51.78;96650.06;4987308;28;20058;-62
2022/07/25 01:25:23;;;;;;;15.70;14.20;;;;;;;26.28;52.08;96752.38;4987251;28;20061;-71
2022/07/25 01:27:52;;;;;;;18.25;14.93;;;;;;;26.26;52.13;96754.91;4986950;28;20058;-69
2022/07/25 01:30:23;;;;;;;17.15;15.40;;;;;;;26.25;52.16;96759.03;4987038;28;20064;-59
2022/07/25 01:32:50;;;;;;;17.10;14.85;;;;;;;26.20;52.19;96756.84;4987228;28;20137;-68
2022/07/25 01:35:17;;;;;;;15.68;14.18;;;;;;;26.22;52.22;96760.00;4985437;28;20047;-69
2022/07/25 01:37:43;;;;;;;15.68;13.65;;;;;;;26.16;52.20;96802.44;4986774;28;20533;-69
2022/07/25 01:40:12;;;;;;;15.93;14.38;;;;;;;25.68;52.19;96692.03;4986651;28;20054;-62
2022/07/25 01:42:40;;;;;;;16.48;14.77;;;;;;;26.08;51.99;96732.28;4987040;28;20085;-69
2022/07/25 01:45:07;;;;;;;18.92;15.57;;;;;;;26.03;52.53;96758.50;4986561;28;20539;-69
2022/07/25 01:47:34;;;;;;;17.77;15.98;;;;;;;25.72;53.47;96761.56;4986684;28;20046;-69
2022/07/25 01:50:00;;;;;;;17.95;16.05;;;;;;;25.77;53.37;96737.41;4986535;28;20498;-60
2022/07/25 01:52:27;;;;;;;16.23;14.50;;;;;;;25.97;52.89;96760.38;4986375;28;20047;-62
2022/07/25 01:54:54;;;;;;;16.85;15.05;;;;;;;26.10;52.38;96750.41;4986703;28;20050;-59
2022/07/25 01:57:22;;;;;;;15.93;13.88;;;;;;;26.03;52.45;96741.47;4986284;28;20611;-63
2022/07/25 01:59:56;;;;;;;15.07;13.55;;;;;;;26.07;52.65;96759.88;4986630;28;20082;-68
2022/07/25 02:02:23;;;;;;;15.85;14.23;;;;;;;25.92;52.77;96735.47;4986558;28;20050;-71
2022/07/25 02:04:49;;;;;;;15.15;13.50;;;;;;;26.08;52.80;96752.94;4982384;28;20062;-60
2022/07/25 02:07:16;;;;;;;16.02;14.40;;;;;;;26.08;52.76;96743.66;4966621;28;20141;-60
2022/07/25 02:09:43;;;;;;;15.70;14.10;;;;;;;25.84;52.94;96711.53;4966771;28;20051;-61
2022/07/25 02:12:09;;;;;;;16.30;14.70;;;;;;;26.04;52.89;96754.38;4964960;28;20067;-59
2022/07/25 02:14:36;;;;;;;16.80;15.10;;;;;;;25.96;53.33;96741.75;4966790;28;20054;-59
2022/07/25 02:17:03;;;;;;;15.93;14.25;;;;;;;25.99;53.15;96747.28;4966564;28;20073;-70
2022/07/25 02:19:29;;;;;;;17.92;15.75;;;;;;;26.04;53.04;96754.38;4965494;28;20142;-60
2022/07/25 02:21:56;;;;;;;16.13;14.43;;;;;;;25.60;52.99;96685.13;4965410;28;20077;-70
2022/07/25 02:24:23;;;;;;;15.90;14.32;;;;;;;25.90;53.20;96746.53;4966666;28;20502;-70
2022/07/25 02:26:49;;;;;;;19.50;15.63;;;;;;;25.75;52.91;96698.16;4966707;28;20055;-60
2022/07/25 02:29:16;;;;;;;17.30;15.63;;;;;;;26.04;52.73;96748.69;4966606;28;20065;-61
2022/07/25 02:31:47;;;;;;;16.73;14.90;;;;;;;25.72;52.94;96706.88;4966556;28;20055;-62
2022/07/25 02:34:14;;;;;;;16.42;14.82;;;;;;;25.95;53.13;96757.22;4966051;28;20585;-60
2022/07/25 02:36:41;;;;;;;17.17;15.07;;;;;;;25.79;52.98;96717.88;4966181;28;20062;-71
2022/07/25 02:39:08;;;;;;;16.55;14.93;;;;;;;25.82;53.01;96731.09;4965091;28;20069;-71
2022/07/25 02:41:35;;;;;;;17.17;14.88;;;;;;;25.72;53.08;96709.72;4966357;28;20065;-70
2022/07/25 02:44:02;;;;;;;15.32;13.77;;;;;;;25.95;53.30;96754.38;4966061;28;20065;-71
2022/07/25 02:46:29;;;;;;;16.50;14.95;;;;;;;25.52;53.32;96672.56;4966387;28;20046;-61
2022/07/25 02:48:56;;;;;;;16.25;14.57;;;;;;;26.02;53.06;96756.94;4966435;28;20066;-62
2022/07/25 02:51:23;;;;;;;16.38;14.77;;;;;;;26.13;52.80;96762.88;4964686;28;20568;-66
2022/07/25 02:53:50;;;;;;;26.83;19.02;;;;;;;25.86;53.59;96758.03;4964932;28;20059;-61
2022/07/25 02:56:24;;;;;;;;;;;;;;;25.58;54.93;96761.44;4966999;28;20055;-69
2022/07/25 02:58:51;;;;;;;17.67;15.88;;;;;;;25.73;54.40;96762.34;4966048;28;19930;-63
2022/07/25 03:01:17;;;;;;;17.75;15.95;;;;;;;25.79;53.98;96760.44;4966123;28;20070;-62
2022/07/25 03:03:44;;;;;;;15.75;14.20;;;;;;;25.91;53.32;96763.06;4966031;28;20146;-67
2022/07/25 03:06:11;;;;;;;16.83;15.13;;;;;;;25.97;52.97;96760.38;4978490;28;20452;-60
2022/07/25 03:08:38;;;;;;;16.77;15.05;;;;;;;26.05;52.76;96775.84;4985584;28;20480;-70
2022/07/25 03:11:04;;;;;;;16.55;14.95;;;;;;;26.04;52.87;96763.69;4985376;28;20050;-61
2022/07/25 03:13:32;;;;;;;16.48;14.73;;;;;;;26.06;52.90;96763.22;4985163;28;20069;-69
2022/07/25 03:15:59;;;;;;;21.33;14.90;;;;;;;26.00;52.89;96745.25;4985466;28;20489;-62
2022/07/25 03:18:26;;;;;;;16.40;14.52;;;;;;;25.78;52.71;96714.22;4985109;28;20058;-59
2022/07/25 03:20:52;;;;;;;17.38;15.50;;;;;;;26.07;52.74;96759.09;4985278;28;20066;-59
2022/07/25 03:23:19;;;;;;;15.50;13.88;;;;;;;25.68;53.10;96714.75;4984646;28;20062;-61
2022/07/25 03:25:46;;;;;;;15.90;14.38;;;;;;;26.02;52.69;96751.25;4983614;28;20062;-62
2022/07/25 03:28:13;;;;;;;16.13;14.20;;;;;;;26.19;52.57;96755.28;4985786;28;20065;-71
2022/07/25 03:30:39;;;;;;;17.17;15.45;;;;;;;26.25;52.36;96754.13;4983704;28;20050;-61
2022/07/25 03:33:06;;;;;;;16.75;14.70;;;;;;;26.36;51.90;96756.44;4985137;28;20583;-61
2022/07/25 03:35:33;;;;;;;20.67;15.20;;;;;;;26.51;51.67;96760.13;4985165;28;20057;-59
2022/07/25 03:38:00;;;;;;;15.43;13.90;;;;;;;26.40;51.49;96743.63;4985046;28;20073;-58
2022/07/25 03:40:27;;;;;;;16.00;14.48;;;;;;;26.49;51.83;96757.00;4983515;28;20069;-59
2022/07/25 03:42:54;;;;;;;16.67;14.40;;;;;;;26.59;51.50;96755.66;4985442;28;20047;-60
2022/07/25 03:45:21;;;;;;;16.65;15.05;;;;;;;26.61;51.48;96761.66;4985125;28;20049;-59
2022/07/25 03:47:47;;;;;;;16.83;15.10;;;;;;;26.55;52.38;96746.56;4985195;28;20050;-67
2022/07/25 03:50:14;;;;;;;18.13;14.95;;;;;;;26.40;52.83;96745.69;4985231;28;20046;-70
2022/07/25 03:52:41;;;;;;;18.75;14.82;;;;;;;26.34;53.46;96739.09;4985034;28;20054;-70
2022/07/25 03:55:10;;;;;;;18.27;16.30;;;;;;;26.22;53.87;96748.63;4983408;28;20061;-71
2022/07/25 03:57:37;;;;;;;17.55;15.75;;;;;;;25.95;53.83;96686.25;4985006;28;20080;-58
2022/07/25 04:00:07;;;;;;;17.38;15.55;;;;;;;26.28;54.73;96766.59;4984664;28;20046;-69
2022/07/25 04:02:34;;;;;;;22.35;16.55;;;;;;;26.15;54.50;96748.97;4984831;28;20441;-67
2022/07/25 04:05:00;;;;;;;24.02;17.08;;;;;;;26.34;53.79;96761.81;4978650;28;20510;-69
2022/07/25 04:07:27;;;;;;;17.67;15.88;;;;;;;26.47;54.21;96757.50;4964974;28;20058;-59
2022/07/25 04:09:54;;;;;;;21.77;16.98;;;;;;;26.59;53.53;96756.47;4965265;28;20087;-60
2022/07/25 04:12:21;;;;;;;19.88;16.98;;;;;;;26.63;53.38;96757.09;4965250;28;20066;-60
2022/07/25 04:14:48;;;;;;;19.42;16.25;;;;;;;26.86;52.99;96775.41;4963303;28;20055;-70
2022/07/25 04:17:15;;;;;;;21.98;18.88;;;;;;;26.91;52.82;96765.44;4965223;28;20054;-59
2022/07/25 04:19:42;;;;;;;18.40;16.50;;;;;;;27.11;51.95;96757.84;4963711;28;20097;-60
2022/07/25 04:22:09;;;;;;;17.00;15.25;;;;;;;27.25;51.89;96768.47;4963837;28;20047;-59
2022/07/25 04:24:36;;;;;;;19.38;17.23;;;;;;;26.41;53.40;96721.69;4965182;28;20063;-59
2022/07/25 04:27:03;;;;;;;21.20;16.50;;;;;;;26.47;54.61;96748.97;4965018;28;20081;-69
2022/07/25 04:29:29;;;;;;;20.77;16.92;;;;;;;26.33;55.56;96782.97;4965244;28;20055;-58
2022/07/25 04:31:56;;;;;;;25.88;18.42;;;;;;;26.49;54.28;96746.41;4965132;28;20438;-70
2022/07/25 04:34:23;;;;;;;21.23;16.50;;;;;;;27.02;53.11;96777.03;4964073;28;20109;-71
2022/07/25 04:36:50;;;;;;;23.80;18.95;;;;;;;27.16;53.42;96774.25;4967104;28;20113;-60
2022/07/25 04:39:17;;;;;;;18.65;16.52;;;;;;;26.89;54.34;96785.06;4968921;28;20065;-58
2022/07/25 04:41:43;;;;;;;21.02;17.83;;;;;;;27.08;54.21;96787.25;4965466;28;20062;-72
2022/07/25 04:44:10;;;;;;;19.48;17.48;;;;;;;26.87;53.65;96725.84;4969305;28;20057;-75
2022/07/25 04:46:37;;;;;;;19.23;17.15;;;;;;;27.20;52.93;96760.63;4966738;28;20168;-57
2022/07/25 04:49:03;;;;;;;18.13;15.93;;;;;;;27.62;52.31;96792.50;4968532;28;20062;-59
2022/07/25 04:51:30;;;;;;;22.33;17.80;;;;;;;27.67;51.78;96794.69;4967158;28;20057;-59
2022/07/25 04:53:57;;;;;;;22.27;16.55;;;;;;;27.74;51.01;96794.28;4968159;28;20058;-76
2022/07/25 04:56:24;;;;;;;18.38;16.58;;;;;;;27.66;51.28;96798.78;4967850;28;20054;-59
2022/07/25 04:58:50;;;;;;;18.05;16.33;;;;;;;27.70;51.53;96793.69;4966894;28;20054;-60
2022/07/25 05:01:17;;;;;;;20.48;16.30;;;;;;;27.68;50.35;96769.81;4968154;28;20535;-57
2022/07/25 05:03:44;;;;;;;23.35;16.63;;;;;;;27.75;50.45;96761.69;4965674;28;20047;-57
2022/07/25 05:06:17;;;;;;;19.05;16.90;;;;;;;28.15;49.85;96793.22;4968113;28;20121;-67
2022/07/25 05:08:44;;;;;;;21.05;17.67;;;;;;;28.21;50.28;96793.31;4966911;28;20053;-57
2022/07/25 05:11:11;;;;;;;19.90;17.67;;;;;;;28.28;49.92;96783.59;4968277;28;20054;-66
2022/07/25 05:13:37;;;;;;;20.92;16.27;;;;;;;28.17;50.99;96802.06;4967946;28;20051;-67
2022/07/25 05:16:04;;;;;;;21.98;16.88;;;;;;;27.84;51.70;96807.16;4968183;28;20062;-66
2022/07/25 05:18:33;;;;;;;19.05;15.75;;;;;;;28.24;50.92;96808.63;4966614;28;20521;-57
2022/07/25 05:21:00;;;;;;;20.63;16.42;;;;;;;28.52;50.58;96809.88;4968128;28;20133;-66
2022/07/25 05:23:26;;;;;;;21.15;17.48;;;;;;;28.57;50.61;96804.28;4968128;28;20408;-59
2022/07/25 05:25:53;;;;;;;17.08;15.40;;;;;;;28.81;49.68;96801.25;4967664;28;20054;-57
2022/07/25 05:28:19;;;;;;;18.58;15.82;;;;;;;28.87;49.49;96799.25;4967604;28;20089;-66
2022/07/25 05:30:46;;;;;;;16.15;14.73;;;;;;;29.11;48.18;96809.22;4967495;28;20050;-66
2022/07/25 05:33:13;;;;;;;16.58;15.05;;;;;;;29.21;47.94;96807.03;4967177;28;20852;-58
2022/07/25 05:35:40;;;;;;;17.25;15.43;;;;;;;29.26;47.83;96780.63;4966774;28;20047;-60
2022/07/25 05:38:07;;;;;;;15.73;14.18;;;;;;;29.45;47.63;96799.00;4967053;28;20051;-68
2022/07/25 05:40:34;;;;;;;15.32;13.93;;;;;;;29.77;46.47;96800.69;4957630;28;20076;-69
2022/07/25 05:43:01;;;;;;;15.65;14.35;;;;;;;29.83;46.80;96790.09;4966819;28;20057;-66
2022/07/25 05:45:31;;;;;;;15.73;14.10;;;;;;;29.82;46.46;96787.75;4964964;28;20051;-65
2022/07/25 05:47:58;;;;;;;16.73;14.63;;;;;;;29.91;45.20;96756.94;4963690;28;20054;-62
2022/07/25 05:50:25;;;;;;;15.60;12.90;;;;;;;30.04;45.30;96774.44;4961152;28;20475;-60
2022/07/25 05:52:52;;;;;;;15.63;14.30;;;;;;;30.08;45.25;96792.13;4965135;28;20215;-62
2022/07/25 05:55:19;;;;;;;14.57;13.23;;;;;;;30.14;45.04;96781.56;4965634;28;20043;-61
2022/07/25 05:57:45;;;;;;;15.02;13.35;;;;;;;30.17;44.78;96809.13;4966636;28;20063;-61
2022/07/25 06:00:14;;;;;;;14.43;12.98;;;;;;;30.16;44.98;96787.53;4966068;28;20047;-67
2022/07/25 06:02:40;;;;;;;16.77;15.18;;;;;;;30.11;45.29;96791.16;4977543;28;20056;-62
2022/07/25 06:05:08;;;;;;;14.88;13.40;;;;;;;30.21;44.06;96791.78;4976384;28;20058;-61
2022/07/25 06:07:34;;;;;;;15.45;14.02;;;;;;;30.26;44.48;96791.81;4983329;28;20054;-62
2022/07/25 06:10:02;;;;;;;15.13;13.63;;;;;;;30.09;44.31;96748.00;4968289;28;20054;-64
2022/07/25 06:12:28;;;;;;;15.07;13.73;;;;;;;30.08;44.70;96777.09;4965567;28;20047;-62
2022/07/25 06:14:55;;;;;;;15.85;14.35;;;;;;;29.97;44.69;96754.91;4964324;28;20054;-60
2022/07/25 06:17:22;;;;;;;14.85;13.43;;;;;;;28.76;44.12;96548.97;4965939;28;20051;-67
2022/07/25 06:19:52;;;;;;;13.38;12.18;;;;;;;30.26;45.11;96788.16;4965868;28;20057;-60
2022/07/25 06:22:19;;;;;;;14.00;12.65;;;;;;;30.09;44.71;96790.88;4963759;28;20055;-63
2022/07/25 06:24:45;;;;;;;15.15;13.75;;;;;;;29.98;44.67;96762.19;4980586;28;20046;-68
2022/07/25 06:27:12;;;;;;;14.48;13.07;;;;;;;30.24;44.70;96785.81;4985839;28;20061;-64
2022/07/25 06:29:45;;;;;;;;;;;;;;;30.33;44.44;96790.56;4970898;28;20525;-66
2022/07/25 06:32:12;;;;;;;19.10;13.40;;;;;;;30.01;45.01;96735.47;4951966;28;19934;-72
2022/07/25 06:34:39;;;;;;;15.38;13.98;;;;;;;30.42;44.68;96793.25;4947128;28;20143;-71
2022/07/25 06:37:05;;;;;;;14.18;12.90;;;;;;;30.35;45.03;96780.19;4955842;28;20051;-67
2022/07/25 06:39:32;;;;;;;14.00;12.70;;;;;;;29.67;45.60;96742.16;4955546;28;20065;-60
2022/07/25 06:42:00;;;;;;;14.45;13.02;;;;;;;30.29;45.40;96784.28;4954378;28;20051;-58
2022/07/25 06:44:27;;;;;;;14.05;12.63;;;;;;;29.57;45.23;96715.03;4946519;28;20047;-62
2022/07/25 06:46:53;;;;;;;14.10;12.80;;;;;;;29.71;46.79;96771.28;4956670;28;20069;-67
2022/07/25 06:49:20;;;;;;;12.52;11.32;;;;;;;29.96;45.79;96781.13;4963080;28;20415;-59
2022/07/25 06:51:47;;;;;;;13.55;12.20;;;;;;;30.29;45.22;96776.50;4953075;28;20059;-72
2022/07/25 06:54:14;;;;;;;13.57;12.27;;;;;;;30.51;44.89;96770.94;4952205;28;20055;-65
2022/07/25 06:56:41;;;;;;;12.65;11.50;;;;;;;30.08;45.17;96729.28;4956594;28;20058;-68
2022/07/25 06:59:07;;;;;;;15.98;12.70;;;;;;;30.18;45.23;96764.97;4962892;28;20055;-75
2022/07/25 07:01:34;;;;;;;12.23;11.15;;;;;;;29.52;46.84;96770.00;4956754;28;20089;-68
2022/07/25 07:04:01;;;;;;;13.52;12.27;;;;;;;29.13;47.22;96740.25;4976425;28;20529;-61
2022/07/25 07:06:28;;;;;;;13.30;12.10;;;;;;;29.67;46.47;96775.66;4968411;28;20055;-59
2022/07/25 07:08:55;;;;;;;13.73;12.30;;;;;;;29.68;46.18;96735.16;4972945;28;20065;-72
2022/07/25 07:11:22;;;;;;;13.27;11.68;;;;;;;30.22;45.40;96788.41;4972455;28;20113;-63
2022/07/25 07:13:48;;;;;;;14.07;12.68;;;;;;;29.87;46.29;96778.44;4980202;28;20054;-59
2022/07/25 07:16:15;;;;;;;14.32;13.00;;;;;;;29.70;46.58;96721.19;4971635;28;20051;-66
2022/07/25 07:18:42;;;;;;;27.83;13.43;;;;;;;30.07;45.04;96719.16;4971083;28;20253;-58
2022/07/25 07:21:14;;;;;;;13.70;12.40;;;;;;;30.42;44.07;96739.72;4970974;28;20088;-69
2022/07/25 07:23:47;;;;;;;12.88;11.75;;;;;;;31.05;43.36;96762.47;4971396;28;20046;-67
2022/07/25 07:26:14;;;;;;;13.30;12.18;;;;;;;30.55;42.77;96777.25;4974570;28;20053;-58
2022/07/25 07:28:40;;;;;;;13.20;12.10;;;;;;;29.56;44.77;96742.00;4968352;28;20054;-65
2022/07/25 07:31:07;;;;;;;14.38;12.43;;;;;;;30.16;43.98;96718.94;4971218;28;20054;-71
2022/07/25 07:33:43;;;;;;;14.13;12.88;;;;;;;30.24;44.59;96780.09;4976823;28;20054;-66
2022/07/25 07:36:10;;;;;;;14.35;13.15;;;;;;;29.81;45.89;96764.13;4973155;28;20058;-59
2022/07/25 07:38:37;;;;;;;13.45;12.35;;;;;;;30.46;44.98;96780.28;4981943;28;20051;-74
2022/07/25 07:41:04;;;;;;;13.40;12.10;;;;;;;30.60;44.57;96739.28;4986752;28;20055;-74
2022/07/25 07:43:31;;;;;;;13.65;12.20;;;;;;;30.29;43.88;96775.72;4971752;28;20055;-60
2022/07/25 07:45:59;;;;;;;14.00;12.50;;;;;;;30.07;44.20;96784.06;4970118;28;20047;-60
2022/07/25 07:48:29;;;;;;;12.77;11.68;;;;;;;30.13;44.25;96779.97;4973067;28;20062;-68
2022/07/25 07:50:58;;;;;;;13.52;12.23;;;;;;;29.91;44.65;96779.78;4972113;28;20473;-58
2022/07/25 07:56:11;;;;;;;13.13;12.00;;;;;;;30.81;42.62;96777.16;4974217;28;20524;-72
2022/07/25 07:58:38;;;;;;;12.90;11.73;;;;;;;30.72;42.72;96780.97;4972671;28;20399;-69
2022/07/25 08:01:05;;;;;;;14.63;12.82;;;;;;;30.59;43.16;96783.50;4979033;28;20050;-59
2022/07/25 08:03:32;;;;;;;14.02;12.73;;;;;;;30.90;42.02;96737.66;4965148;28;20525;-71
2022/07/25 08:05:59;;;;;;;13.95;12.52;;;;;;;31.50;41.91;96775.69;4967445;28;20082;-69
2022/07/25 08:08:25;;;;;;;13.30;12.05;;;;;;;32.02;40.42;96771.13;4964905;28;20050;-59
2022/07/25 08:10:57;;;;;;;14.90;13.50;;;;;;;31.42;41.49;96748.84;4970602;28;20137;-59
2022/07/25 08:13:27;;;;;;;12.75;11.57;;;;;;;31.07;40.71;96702.63;4969858;28;20784;-71
2022/07/25 08:15:58;;;;;;;13.48;12.27;;;;;;;31.32;41.12;96776.91;4972999;28;20050;-59
2022/07/25 08:18:28;;;;;;;13.43;12.18;;;;;;;31.05;41.04;96756.75;4968710;28;20074;-58
2022/07/25 08:20:55;;;;;;;13.25;12.07;;;;;;;31.44;40.51;96781.38;4973251;28;20046;-71
2022/07/25 08:23:24;;;;;;;13.05;11.77;;;;;;;32.01;38.71;96770.31;4968705;28;20061;-72
2022/07/25 08:25:50;;;;;;;13.10;12.07;;;;;;;32.55;38.26;96738.56;4971113;28;20526;-62
2022/07/25 08:28:17;;;;;;;14.52;13.23;;;;;;;32.75;39.33;96787.81;4975147;28;20073;-64
2022/07/25 08:30:45;;;;;;;14.05;12.85;;;;;;;32.61;38.58;96759.41;4978776;28;20588;-57
2022/07/25 08:33:14;;;;;;;15.02;12.68;;;;;;;32.67;39.28;96783.91;4976597;28;20052;-61
2022/07/25 08:35:47;;;;;;;14.23;12.93;;;;;;;32.57;39.62;96782.59;4973791;28;20058;-63
2022/07/25 08:38:14;;;;;;;13.52;12.48;;;;;;;31.40;42.25;96775.13;4972803;28;20467;-67
2022/07/25 08:40:41;;;;;;;14.40;12.98;;;;;;;31.07;42.58;96794.19;4973588;28;20051;-70
2022/07/25 08:43:11;;;;;;;14.98;13.48;;;;;;;31.14;42.04;96690.69;4982456;28;20054;-65
2022/07/25 08:45:44;;;;;;;13.95;12.82;;;;;;;30.93;43.12;96768.13;4980186;28;20054;-57
2022/07/25 08:48:12;;;;;;;12.65;11.55;;;;;;;30.88;43.36;96788.91;4978011;28;20541;-58
2022/07/25 08:50:39;;;;;;;12.98;11.77;;;;;;;30.51;43.18;96736.63;4981162;28;20062;-73
2022/07/25 08:53:06;;;;;;;14.60;13.20;;;;;;;30.72;44.73;96792.44;4968453;28;20059;-57
2022/07/25 08:55:53;;;;;;;14.50;13.18;;;;;;;31.67;42.77;96796.56;4973706;28;20113;-73
2022/07/25 08:58:20;;;;;;;14.07;12.88;;;;;;;31.44;42.68;96789.19;4967062;28;20059;-59
2022/07/25 09:00:47;;;;;;;14.27;13.27;;;;;;;30.74;44.42;96784.13;4972255;28;20061;-57
2022/07/25 09:03:13;;;;;;;15.45;13.98;;;;;;;31.35;43.58;96777.94;4968682;28;20077;-57
2022/07/25 09:05:41;;;;;;;16.00;14.50;;;;;;;31.78;42.79;96774.44;4969323;28;20449;-71
2022/07/25 09:08:16;;;;;;;15.35;14.07;;;;;;;32.09;42.05;96787.81;4974439;28;20095;-71
2022/07/25 09:10:50;;;;;;;16.48;15.05;;;;;;;31.91;42.98;96776.84;4977414;28;20514;-58
2022/07/25 09:13:20;;;;;;;12.80;11.80;;;;;;;32.05;42.17;96785.19;4983738;28;20524;-57
2022/07/25 09:15:52;;;;;;;16.45;15.00;;;;;;;32.39;41.63;96762.28;4975277;28;20054;-64
2022/07/25 09:18:24;;;;;;;15.00;13.20;;;;;;;32.22;41.17;96722.13;4969478;28;20110;-65
2022/07/25 09:21:00;;;;;;;14.57;13.38;;;;;;;32.03;41.50;96769.81;4975606;28;20057;-59
2022/07/25 09:23:34;;;;;;;14.85;13.43;;;;;;;32.35;41.89;96779.72;4977363;28;20290;-56
2022/07/25 09:26:13;;;;;;;15.68;14.13;;;;;;;32.24;41.40;96731.78;4975679;28;20065;-66
2022/07/25 09:28:47;;;;;;;14.43;13.23;;;;;;;32.98;40.41;96757.75;4969300;28;20433;-56
2022/07/25 09:31:16;;;;;;;21.65;19.27;;;;;;;33.28;40.03;96766.53;4977554;28;20073;-54
2022/07/25 09:33:55;;;;;;;15.20;13.90;;;;;;;33.19;38.83;96770.50;4979392;28;20285;-67
2022/07/25 09:36:22;;;;;;;15.88;14.40;;;;;;;33.43;38.48;96767.03;4975349;28;20073;-60
2022/07/25 09:38:59;;;;;;;16.25;14.57;;;;;;;33.45;39.04;96770.16;4983863;28;20053;-57
2022/07/25 09:41:37;;;;;;;15.32;13.93;;;;;;;33.10;39.26;96709.72;4977676;28;20042;-62
2022/07/25 09:44:28;;;;;;;14.98;13.75;;;;;;;32.71;39.77;96761.47;4972244;28;20057;-58
2022/07/25 09:47:10;;;;;;;15.40;13.93;;;;;;;32.69;39.91;96755.44;4974935;28;20061;-60
2022/07/25 09:49:42;;;;;;;16.73;14.98;;;;;;;32.12;41.81;96746.63;4984289;28;20065;-58
2022/07/25 09:52:12;;;;;;;18.85;16.05;;;;;;;32.67;41.37;96757.28;4983836;28;20058;-67
2022/07/25 09:54:39;;;;;;;17.27;15.70;;;;;;;32.21;40.36;96634.56;4985466;28;20058;-60
2022/07/25 09:57:06;;;;;;;17.02;15.23;;;;;;;32.79;40.64;96753.88;4983527;28;20141;-57
2022/07/25 09:59:34;;;;;;;15.40;13.85;;;;;;;32.30;40.21;96757.56;4985075;28;20062;-66
2022/07/25 10:02:08;;;;;;;17.00;15.38;;;;;;;32.40;41.33;96753.16;4985255;28;20101;-59
2022/07/25 10:05:13;;;;;;;14.77;13.45;;;;;;;32.42;38.68;96759.16;4984816;28;20136;-70
2022/07/25 10:07:46;;;;;;;14.68;13.18;;;;;;;32.17;39.32;96749.50;4997056;28;20050;-65
2022/07/25 10:10:31;;;;;;;16.23;14.77;;;;;;;32.97;40.73;96747.59;4987481;28;20053;-63
2022/07/25 10:13:03;;;;;;;15.13;13.57;;;;;;;33.15;39.12;96738.38;4985274;28;20050;-60
2022/07/25 10:15:39;;;;;;;16.95;15.07;;;;;;;33.62;39.05;96751.47;4974084;28;20062;-64
2022/07/25 10:18:07;;;;;;;16.95;15.30;;;;;;;33.96;37.09;96711.03;4984485;28;20046;-68
2022/07/25 10:20:34;;;;;;;13.25;12.07;;;;;;;33.27;35.36;96648.00;4984410;28;20046;-65
2022/07/25 10:23:02;;;;;;;11.50;10.38;;;;;;;33.23;35.60;96730.00;4984796;28;20274;-69
2022/07/25 10:25:29;;;;;;;14.32;13.23;;;;;;;32.65;37.39;96737.75;4985614;28;20058;-70
2022/07/25 10:28:07;;;;;;;15.70;14.10;;;;;;;32.13;39.41;96725.25;4984781;28;20066;-60
2022/07/25 10:30:37;;;;;;;16.10;14.52;;;;;;;31.38;40.60;96662.41;4983856;28;20069;-61
2022/07/25 10:33:11;;;;;;;15.07;13.77;;;;;;;31.45;41.28;96727.75;5001269;28;20239;-64
2022/07/25 10:35:38;;;;;;;14.40;13.13;;;;;;;31.79;40.85;96729.38;4984273;28;20077;-60
2022/07/25 10:38:05;;;;;;;14.55;13.05;;;;;;;31.37;41.29;96769.63;4985636;28;20062;-60
2022/07/25 10:40:43;;;;;;;15.10;13.65;;;;;;;31.11;42.47;96734.66;4985529;28;20057;-65
2022/07/25 10:43:18;;;;;;;16.00;14.60;;;;;;;31.25;42.10;96730.78;4985418;28;20054;-67
2022/07/25 10:45:53;;;;;;;15.63;14.23;;;;;;;31.10;41.69;96733.84;4984836;28;20058;-71
2022/07/25 10:48:23;;;;;;;16.05;13.95;;;;;;;31.25;41.37;96737.31;4985139;28;20580;-68
2022/07/25 10:50:58;;;;;;;14.27;13.02;;;;;;;32.24;39.23;96728.13;4984941;28;20094;-67
2022/07/25 10:53:44;;;;;;;14.32;13.02;;;;;;;32.04;39.59;96728.38;4982979;28;20054;-66
2022/07/25 10:56:22;;;;;;;13.38;12.27;;;;;;;32.36;38.27;96698.13;4984861;28;20054;-62
2022/07/25 10:58:55;;;;;;;14.13;13.02;;;;;;;32.28;37.66;96665.53;4965759;28;20066;-62
2022/07/25 11:01:35;;;;;;;13.98;12.77;;;;;;;31.78;38.41;96587.41;4973649;28;20046;-64
2022/07/25 11:04:04;;;;;;;14.98;13.52;;;;;;;32.39;38.90;96717.16;4990059;28;20100;-68
2022/07/25 11:06:36;;;;;;;13.60;12.50;;;;;;;32.13;38.82;96708.84;4981041;28;20057;-59
2022/07/25 11:09:13;;;;;;;15.52;13.98;;;;;;;32.75;38.01;96721.81;4984412;28;20069;-62
2022/07/25 11:11:47;;;;;;;16.52;14.68;;;;;;;32.59;39.32;96716.88;4981336;28;20081;-66
2022/07/25 11:14:21;;;;;;;15.82;14.45;;;;;;;32.42;39.87;96713.28;4979960;28;20057;-60
2022/07/25 11:16:50;;;;;;;14.07;12.80;;;;;;;31.22;41.43;96674.56;4985022;28;20473;-69
2022/07/25 11:19:28;;;;;;;15.73;14.43;;;;;;;30.93;41.58;96613.63;4982799;28;20058;-67
2022/07/25 11:21:59;;;;;;;15.10;13.90;;;;;;;31.21;41.17;96644.38;4984115;28;20054;-60
2022/07/25 11:24:39;;;;;;;14.30;13.10;;;;;;;31.26;40.73;96715.97;4984055;28;20125;-68
2022/07/25 11:27:08;;;;;;;14.55;13.18;;;;;;;31.58;nan;96693.69;4974619;28;20089;-61